createdAt,value
2022-11-16T00:01:41.445Z,100.00
2022-11-16T00:04:11.843Z,100.00
2022-11-16T00:06:38.433Z,100.00
2022-11-16T00:09:22.784Z,100.00
2022-11-16T00:11:55.527Z,100.00
2022-11-16T00:14:24.256Z,100.00
2022-11-16T00:16:50.956Z,100.00
2022-11-16T00:19:17.820Z,100.00
2022-11-16T00:21:44.383Z,100.00
2022-11-16T00:24:14.036Z,100.00
2022-11-16T00:26:40.973Z,100.00
2022-11-16T00:29:12.224Z,100.00
2022-11-16T00:31:38.661Z,100.00
2022-11-16T00:34:05.093Z,100.00
2022-11-16T00:36:31.556Z,100.00
2022-11-16T00:38:57.957Z,100.00
2022-11-16T00:41:24.430Z,100.00
2022-11-16T00:43:50.857Z,100.00
2022-11-16T00:46:17.288Z,100.00
2022-11-16T00:48:43.687Z,100.00
2022-11-16T00:51:10.128Z,100.00
2022-11-16T00:53:36.763Z,100.00
2022-11-16T00:56:03.492Z,100.00
2022-11-16T00:58:30.286Z,100.00
2022-11-16T01:00:56.871Z,100.00
2022-11-16T01:03:23.327Z,100.00
2022-11-16T01:05:49.755Z,100.00
2022-11-16T01:08:16.254Z,100.00
2022-11-16T01:10:42.691Z,100.00
2022-11-16T01:13:10.958Z,100.00
2022-11-16T01:15:37.427Z,100.00
2022-11-16T01:18:03.926Z,100.00
2022-11-16T01:20:30.412Z,100.00
2022-11-16T01:22:57.129Z,100.00
2022-11-16T01:25:23.616Z,100.00
2022-11-16T01:27:50.075Z,100.00
2022-11-16T01:30:16.664Z,100.00
2022-11-16T01:32:43.702Z,100.00
2022-11-16T01:35:14.371Z,100.00
2022-11-16T01:37:40.865Z,100.00
2022-11-16T01:40:08.036Z,100.00
2022-11-16T01:42:34.559Z,100.00
2022-11-16T01:45:03.528Z,100.00
2022-11-16T01:47:30.457Z,100.00
2022-11-16T01:50:03.070Z,100.00
2022-11-16T01:52:32.739Z,100.00
2022-11-16T01:54:59.703Z,100.00
2022-11-16T01:57:31.548Z,100.00
2022-11-16T01:59:59.997Z,100.00
2022-11-16T02:02:26.612Z,100.00
2022-11-16T02:04:54.907Z,100.00
2022-11-16T02:08:18.010Z,100.00
2022-11-16T02:11:14.737Z,100.00
2022-11-16T02:14:02.952Z,100.00
2022-11-16T02:17:11.181Z,100.00
2022-11-16T02:20:09.747Z,100.00
2022-11-16T02:22:57.662Z,100.00
2022-11-16T02:25:58.249Z,100.00
2022-11-16T02:28:48.560Z,100.00
2022-11-16T02:31:27.007Z,100.00
2022-11-16T02:33:56.969Z,100.00
2022-11-16T02:36:25.569Z,100.00
2022-11-16T02:38:58.037Z,100.00
2022-11-16T02:41:27.581Z,100.00
2022-11-16T02:44:01.418Z,100.00
2022-11-16T02:46:35.660Z,100.00
2022-11-16T02:49:05.192Z,100.00
2022-11-16T02:51:34.876Z,100.00
2022-11-16T02:54:03.159Z,100.00
2022-11-16T02:56:30.636Z,100.00
2022-11-16T02:58:59.064Z,100.00
2022-11-16T03:01:35.488Z,100.00
2022-11-16T03:04:11.248Z,100.00
2022-11-16T03:06:41.512Z,100.00
2022-11-16T03:09:15.789Z,100.00
2022-11-16T03:12:02.038Z,100.00
2022-11-16T03:14:40.835Z,100.00
2022-11-16T03:17:15.928Z,100.00
2022-11-16T03:19:50.881Z,100.00
2022-11-16T03:22:28.365Z,100.00
2022-11-16T03:24:55.735Z,100.00
2022-11-16T03:27:30.360Z,100.00
2022-11-16T03:30:05.180Z,100.00
2022-11-16T03:32:57.076Z,100.00
2022-11-16T03:35:30.540Z,100.00
2022-11-16T03:37:59.844Z,100.00
2022-11-16T03:40:30.187Z,100.00
2022-11-16T03:43:00.521Z,100.00
2022-11-16T03:45:28.005Z,100.00
2022-11-16T03:47:54.427Z,100.00
2022-11-16T03:50:20.992Z,100.00
2022-11-16T03:52:47.433Z,100.00
2022-11-16T03:55:14.148Z,100.00
2022-11-16T03:57:40.575Z,100.00
2022-11-16T04:00:08.943Z,100.00
2022-11-16T04:02:35.385Z,100.00
2022-11-16T04:05:20.435Z,100.00
2022-11-16T04:08:07.279Z,100.00
2022-11-16T04:10:52.627Z,100.00
2022-11-16T04:13:45.211Z,100.00
2022-11-16T04:16:30.024Z,100.00
2022-11-16T04:19:14.869Z,100.00
2022-11-16T04:22:14.333Z,100.00
2022-11-16T04:24:45.891Z,100.00
2022-11-16T04:27:33.980Z,100.00
2022-11-16T04:30:02.308Z,100.00
2022-11-16T04:32:47.776Z,100.00
2022-11-16T04:35:33.067Z,100.00
2022-11-16T04:37:59.849Z,100.00
2022-11-16T04:40:30.417Z,100.00
2022-11-16T04:42:58.104Z,100.00
2022-11-16T04:45:44.466Z,100.00
2022-11-16T04:48:12.449Z,100.00
2022-11-16T04:50:39.415Z,100.00
2022-11-16T04:53:06.927Z,100.00
2022-11-16T04:55:33.944Z,100.00
2022-11-16T04:58:01.178Z,100.00
2022-11-16T05:00:28.396Z,100.00
2022-11-16T05:03:00.834Z,100.00
2022-11-16T05:05:28.292Z,100.00
2022-11-16T05:07:54.747Z,100.00
2022-11-16T05:10:21.428Z,100.00
2022-11-16T05:12:47.843Z,100.00
2022-11-16T05:15:14.373Z,100.00
2022-11-16T05:17:40.917Z,100.00
2022-11-16T05:20:26.719Z,100.00
2022-11-16T05:22:55.073Z,100.00
2022-11-16T05:25:21.643Z,100.00
2022-11-16T05:27:48.141Z,100.00
2022-11-16T05:30:14.646Z,100.00
2022-11-16T05:32:41.167Z,100.00
2022-11-16T05:35:08.004Z,100.00
2022-11-16T05:37:34.441Z,100.00
2022-11-16T05:40:00.897Z,100.00
2022-11-16T05:42:27.349Z,100.00
2022-11-16T05:44:53.772Z,100.00
2022-11-16T05:47:20.208Z,100.00
2022-11-16T05:49:46.969Z,100.00
2022-11-16T05:52:13.393Z,100.00
2022-11-16T05:54:39.852Z,100.00
2022-11-16T05:57:06.261Z,99.80
2022-11-16T05:59:32.697Z,99.25
2022-11-16T06:01:59.136Z,98.35
2022-11-16T06:04:25.644Z,98.00
2022-11-16T06:06:52.460Z,97.18
2022-11-16T06:09:19.175Z,96.61
2022-11-16T06:11:46.309Z,96.50
2022-11-16T06:14:12.768Z,96.19
2022-11-16T06:16:39.321Z,96.40
2022-11-16T06:19:05.749Z,96.52
2022-11-16T06:21:32.981Z,96.62
2022-11-16T06:23:59.693Z,97.31
2022-11-16T06:26:26.134Z,97.43
2022-11-16T06:28:54.830Z,97.39
2022-11-16T06:31:21.408Z,97.06
2022-11-16T06:33:47.855Z,96.60
2022-11-16T06:36:14.307Z,95.50
2022-11-16T06:38:40.998Z,95.63
2022-11-16T06:41:07.545Z,94.65
2022-11-16T06:43:33.966Z,94.44
2022-11-16T06:46:00.409Z,94.65
2022-11-16T06:48:26.948Z,94.64
2022-11-16T06:50:53.839Z,95.43
2022-11-16T06:53:25.895Z,95.21
2022-11-16T06:55:55.301Z,94.79
2022-11-16T06:58:21.939Z,95.12
2022-11-16T07:00:48.384Z,94.97
2022-11-16T07:03:14.819Z,95.28
2022-11-16T07:05:42.105Z,95.64
2022-11-16T07:08:08.753Z,95.84
2022-11-16T07:10:35.245Z,95.79
2022-11-16T07:13:03.632Z,95.28
2022-11-16T07:15:30.745Z,95.08
2022-11-16T07:17:57.168Z,95.07
2022-11-16T07:20:24.004Z,94.57
2022-11-16T07:22:50.625Z,94.05
2022-11-16T07:25:17.177Z,94.16
2022-11-16T07:27:43.613Z,94.33
2022-11-16T07:30:10.498Z,94.58
2022-11-16T07:32:39.769Z,94.80
2022-11-16T07:35:06.686Z,95.07
2022-11-16T07:37:33.188Z,95.16
2022-11-16T07:39:59.599Z,95.54
2022-11-16T07:42:26.057Z,95.34
2022-11-16T07:44:52.489Z,95.05
2022-11-16T07:47:18.911Z,95.51
2022-11-16T07:49:45.353Z,95.65
2022-11-16T07:52:11.911Z,95.84
2022-11-16T07:54:38.360Z,95.88
2022-11-16T07:57:04.841Z,95.83
2022-11-16T07:59:31.365Z,96.21
2022-11-16T08:01:59.263Z,95.89
2022-11-16T08:04:26.023Z,96.20
2022-11-16T08:06:52.599Z,96.29
2022-11-16T08:09:19.166Z,96.19
2022-11-16T08:11:47.112Z,95.24
2022-11-16T08:14:14.057Z,93.84
2022-11-16T08:16:40.491Z,92.38
2022-11-16T08:19:06.934Z,91.03
2022-11-16T08:21:33.407Z,90.71
2022-11-16T08:23:59.832Z,91.29
2022-11-16T08:26:27.030Z,91.24
2022-11-16T08:28:55.621Z,91.97
2022-11-16T08:31:25.383Z,89.82
2022-11-16T08:33:52.132Z,90.45
2022-11-16T08:36:19.252Z,89.17
2022-11-16T08:38:50.207Z,91.05
2022-11-16T08:41:17.279Z,89.41
2022-11-16T08:43:46.458Z,90.57
2022-11-16T08:46:13.742Z,90.01
2022-11-16T08:48:40.410Z,88.91
2022-11-16T08:51:20.756Z,88.61
2022-11-16T08:53:49.057Z,88.43
2022-11-16T08:56:17.905Z,87.28
2022-11-16T08:58:47.057Z,87.06
2022-11-16T09:01:19.179Z,84.37
2022-11-16T09:03:46.229Z,85.29
2022-11-16T09:06:13.575Z,85.73
2022-11-16T09:08:41.529Z,82.67
2022-11-16T09:11:11.519Z,81.99
2022-11-16T09:13:38.229Z,82.24
2022-11-16T09:16:05.330Z,82.40
2022-11-16T09:18:32.750Z,82.29
2022-11-16T09:20:59.653Z,82.17
2022-11-16T09:23:26.224Z,81.86
2022-11-16T09:25:53.550Z,83.06
2022-11-16T09:28:21.203Z,80.61
2022-11-16T09:30:50.384Z,81.02
2022-11-16T09:33:16.968Z,81.02
2022-11-16T09:35:43.477Z,80.14
2022-11-16T09:38:10.023Z,80.29
2022-11-16T09:40:46.266Z,80.50
2022-11-16T09:43:54.778Z,78.11
2022-11-16T09:46:29.285Z,77.38
2022-11-16T09:49:02.767Z,78.64
2022-11-16T09:51:34.244Z,77.74
2022-11-16T09:54:11.785Z,79.00
2022-11-16T09:56:41.705Z,77.84
2022-11-16T09:59:09.397Z,77.65
2022-11-16T10:01:52.999Z,77.48
2022-11-16T10:04:40.374Z,79.26
2022-11-16T10:07:20.619Z,77.17
2022-11-16T10:09:47.824Z,77.96
2022-11-16T10:12:43.514Z,78.68
2022-11-16T10:15:23.586Z,78.41
2022-11-16T10:18:17.892Z,79.52
2022-11-16T10:21:07.322Z,80.27
2022-11-16T10:23:50.374Z,78.96
2022-11-16T10:26:36.176Z,77.28
2022-11-16T10:29:14.710Z,77.08
2022-11-16T10:32:03.112Z,77.17
2022-11-16T10:34:42.246Z,76.99
2022-11-16T10:37:12.927Z,76.98
2022-11-16T10:39:41.128Z,76.53
2022-11-16T10:42:15.265Z,76.14
2022-11-16T10:44:45.921Z,78.73
2022-11-16T10:47:36.761Z,77.38
2022-11-16T10:50:18.277Z,76.66
2022-11-16T10:52:44.695Z,76.22
2022-11-16T10:55:15.557Z,76.97
2022-11-16T10:58:08.399Z,76.34
2022-11-16T11:00:39.405Z,74.91
2022-11-16T11:03:06.874Z,74.58
2022-11-16T11:05:35.464Z,76.35
2022-11-16T11:08:10.041Z,76.08
2022-11-16T11:10:39.086Z,75.51
2022-11-16T11:13:11.470Z,75.88
2022-11-16T11:15:39.770Z,76.48
2022-11-16T11:18:11.091Z,75.37
2022-11-16T11:20:44.273Z,74.73
2022-11-16T11:23:18.306Z,73.95
2022-11-16T11:25:53.918Z,75.36
2022-11-16T11:28:23.179Z,75.53
2022-11-16T11:31:04.812Z,72.82
2022-11-16T11:33:41.234Z,72.55
2022-11-16T11:36:18.555Z,70.24
2022-11-16T11:39:05.927Z,68.91
2022-11-16T11:41:37.875Z,65.64
2022-11-16T11:44:14.717Z,66.66
2022-11-16T11:47:29.057Z,64.74
2022-11-16T11:49:39.478Z,63.92
2022-11-16T11:52:20.786Z,63.62
2022-11-16T11:54:50.159Z,64.95
2022-11-16T11:57:22.037Z,65.44
2022-11-16T11:59:50.867Z,62.52
2022-11-16T12:02:49.885Z,63.22
2022-11-16T12:05:19.403Z,64.30
2022-11-16T12:08:01.989Z,61.06
2022-11-16T12:10:47.763Z,60.66
2022-11-16T12:13:31.188Z,60.74
2022-11-16T12:16:03.897Z,61.38
2022-11-16T12:18:45.264Z,62.27
2022-11-16T12:21:14.791Z,64.62
2022-11-16T12:24:05.289Z,63.68
2022-11-16T12:26:37.483Z,63.38
2022-11-16T12:29:20.395Z,63.56
2022-11-16T12:32:01.030Z,66.36
2022-11-16T12:34:48.282Z,64.76
2022-11-16T12:37:44.017Z,65.88
2022-11-16T12:40:50.160Z,65.52
2022-11-16T12:43:28.183Z,65.56
2022-11-16T12:46:17.704Z,67.12
2022-11-16T12:49:01.611Z,67.36
2022-11-16T12:51:36.826Z,68.66
2022-11-16T12:54:06.288Z,68.53
2022-11-16T12:56:38.675Z,64.98
2022-11-16T12:59:26.484Z,66.23
2022-11-16T13:02:31.349Z,66.46
2022-11-16T13:05:05.407Z,65.83
2022-11-16T13:07:42.949Z,68.23
2022-11-16T13:10:18.379Z,68.03
2022-11-16T13:12:47.697Z,65.63
2022-11-16T13:15:24.886Z,66.27
2022-11-16T13:17:58.050Z,66.79
2022-11-16T13:20:56.655Z,64.27
2022-11-16T13:23:48.881Z,66.31
2022-11-16T13:26:33.988Z,66.47
2022-11-16T13:29:19.163Z,66.26
2022-11-16T13:32:11.904Z,64.32
2022-11-16T13:34:40.505Z,63.62
2022-11-16T13:37:38.059Z,64.04
2022-11-16T13:40:04.632Z,65.80
2022-11-16T13:42:35.488Z,64.38
2022-11-16T13:45:13.393Z,63.75
2022-11-16T13:47:39.870Z,66.59
2022-11-16T13:50:18.501Z,63.63
2022-11-16T13:53:46.206Z,64.26
2022-11-16T13:55:46.479Z,64.28
2022-11-16T13:58:21.399Z,63.71
2022-11-16T14:01:08.879Z,64.25
2022-11-16T14:03:40.768Z,65.66
2022-11-16T14:06:29.753Z,64.38
2022-11-16T14:08:57.858Z,64.90
2022-11-16T14:11:38.800Z,65.43
2022-11-16T14:43:09.517Z,66.38
2022-11-16T14:45:32.751Z,67.01
2022-11-16T14:48:03.774Z,67.67
2022-11-16T14:50:35.414Z,68.06
2022-11-16T14:53:09.098Z,69.06
2022-11-16T14:55:42.053Z,69.52
2022-11-16T14:58:17.954Z,69.61
2022-11-16T15:01:00.297Z,69.69
2022-11-16T15:03:40.982Z,69.90
2022-11-16T15:06:08.304Z,70.37
2022-11-16T15:09:00.726Z,70.63
2022-11-16T15:11:56.160Z,70.96
2022-11-16T15:14:31.955Z,71.32
2022-11-16T15:17:00.177Z,71.66
2022-11-16T15:19:30.656Z,71.42
2022-11-16T15:21:58.594Z,71.84
2022-11-16T15:24:43.021Z,71.89
2022-11-16T15:27:34.934Z,72.09
2022-11-16T15:30:04.492Z,72.47
2022-11-16T15:32:37.914Z,72.28
2022-11-16T15:35:05.766Z,72.99
2022-11-16T15:37:32.322Z,72.95
2022-11-16T15:40:02.397Z,72.89
2022-11-16T15:42:29.398Z,72.71
2022-11-16T15:44:56.525Z,72.98
2022-11-16T15:47:23.821Z,73.34
2022-11-16T15:49:52.998Z,73.55
2022-11-16T15:52:55.480Z,73.42
2022-11-16T15:55:38.835Z,73.56
2022-11-16T15:58:27.867Z,74.31
2022-11-16T16:00:55.269Z,74.29
2022-11-16T16:03:31.552Z,74.47
2022-11-16T16:05:58.583Z,74.76
2022-11-16T16:08:33.766Z,75.36
2022-11-16T16:11:25.457Z,75.29
2022-11-16T16:14:02.480Z,75.80
2022-11-16T16:16:37.359Z,75.89
2022-11-16T16:19:34.737Z,75.84
2022-11-16T16:22:03.069Z,76.57
2022-11-16T16:24:46.221Z,76.94
2022-11-16T16:27:24.281Z,77.79
2022-11-16T16:29:52.921Z,77.56
2022-11-16T16:32:25.700Z,77.73
2022-11-16T16:35:00.248Z,77.57
2022-11-16T16:37:28.882Z,77.52
2022-11-16T16:39:55.352Z,77.23
2022-11-16T16:42:22.186Z,77.46
2022-11-16T16:44:48.964Z,77.35
2022-11-16T16:47:17.229Z,77.90
2022-11-16T16:49:43.787Z,77.83
2022-11-16T16:52:12.698Z,77.68
2022-11-16T16:54:40.416Z,78.21
2022-11-16T16:57:11.782Z,78.24
2022-11-16T16:59:38.286Z,77.88
2022-11-16T17:02:04.761Z,78.18
2022-11-16T17:04:32.820Z,78.89
2022-11-16T17:06:59.326Z,78.66
2022-11-16T17:09:25.827Z,78.79
2022-11-16T17:11:52.376Z,79.36
2022-11-16T17:14:21.479Z,79.69
2022-11-16T17:16:47.957Z,79.67
2022-11-16T17:19:14.430Z,79.41
2022-11-16T17:21:40.867Z,79.23
2022-11-16T17:24:07.520Z,80.35
2022-11-16T17:26:34.040Z,79.62
2022-11-16T17:29:00.736Z,80.39
2022-11-16T17:31:28.335Z,80.28
2022-11-16T17:33:57.682Z,80.43
2022-11-16T17:36:24.163Z,80.38
2022-11-16T17:38:50.642Z,80.05
2022-11-16T17:41:25.551Z,79.63
2022-11-16T17:43:53.482Z,79.76
2022-11-16T17:46:22.103Z,79.61
2022-11-16T17:48:49.306Z,79.53
2022-11-16T17:51:21.883Z,79.85
2022-11-16T17:53:49.829Z,79.83
2022-11-16T17:56:21.728Z,79.91
2022-11-16T17:58:50.174Z,79.66
2022-11-16T18:01:16.941Z,80.11
2022-11-16T18:03:43.549Z,80.65
2022-11-16T18:06:16.145Z,81.37
2022-11-16T18:08:46.590Z,81.31
2022-11-16T18:11:17.725Z,81.60
2022-11-16T18:13:45.063Z,82.35
2022-11-16T18:16:14.223Z,83.01
2022-11-16T18:18:41.482Z,82.96
2022-11-16T18:21:09.363Z,83.06
2022-11-16T18:23:37.656Z,82.94
2022-11-16T18:26:16.887Z,83.62
2022-11-16T18:28:46.798Z,83.76
2022-11-16T18:31:15.717Z,83.42
2022-11-16T18:33:43.130Z,83.07
2022-11-16T18:36:10.568Z,83.62
2022-11-16T18:38:37.552Z,82.77
2022-11-16T18:41:15.586Z,83.42
2022-11-16T18:44:01.857Z,83.75
2022-11-16T18:46:30.951Z,83.34
2022-11-16T18:48:58.139Z,83.71
2022-11-16T18:51:27.070Z,82.72
2022-11-16T18:53:53.758Z,83.79
2022-11-16T18:56:20.389Z,83.24
2022-11-16T18:58:52.032Z,83.72
2022-11-16T19:01:23.066Z,83.40
2022-11-16T19:03:51.151Z,83.39
2022-11-16T19:06:18.348Z,83.22
2022-11-16T19:08:51.777Z,83.25
2022-11-16T19:11:22.813Z,83.78
2022-11-16T19:13:53.068Z,84.71
2022-11-16T19:16:19.527Z,85.57
2022-11-16T19:18:46.034Z,85.81
2022-11-16T19:21:14.705Z,86.11
2022-11-16T19:23:44.404Z,86.26
2022-11-16T19:26:15.647Z,86.20
2022-11-16T19:28:43.870Z,85.82
2022-11-16T19:31:16.305Z,86.60
2022-11-16T19:33:44.610Z,86.43
2022-11-16T19:36:18.968Z,86.55
2022-11-16T19:38:48.170Z,86.36
2022-11-16T19:41:22.500Z,86.82
2022-11-16T19:43:56.919Z,86.90
2022-11-16T19:46:24.830Z,87.31
2022-11-16T19:48:52.354Z,87.46
2022-11-16T19:51:22.503Z,88.07
2022-11-16T19:53:49.585Z,88.35
2022-11-16T19:56:18.360Z,88.98
2022-11-16T19:58:45.324Z,89.24
2022-11-16T20:01:25.438Z,88.74
2022-11-16T20:03:52.259Z,89.08
2022-11-16T20:06:26.583Z,89.57
2022-11-16T20:09:01.062Z,89.14
2022-11-16T20:11:30.127Z,89.39
2022-11-16T20:13:58.169Z,89.42
2022-11-16T20:16:28.356Z,89.42
2022-11-16T20:18:55.270Z,89.59
2022-11-16T20:21:28.797Z,89.74
2022-11-16T20:24:00.273Z,89.87
2022-11-16T20:26:32.262Z,90.23
2022-11-16T20:28:59.875Z,90.06
2022-11-16T20:31:28.529Z,90.26
2022-11-16T20:33:57.339Z,89.85
2022-11-16T20:36:25.694Z,90.50
2022-11-16T20:38:52.589Z,90.65
2022-11-16T20:41:22.228Z,90.96
2022-11-16T20:43:53.965Z,90.61
2022-11-16T20:46:22.894Z,90.58
2022-11-16T20:48:49.964Z,90.73
2022-11-16T20:51:19.027Z,90.98
2022-11-16T20:53:47.607Z,91.11
2022-11-16T20:56:15.505Z,91.19
2022-11-16T20:58:42.346Z,91.70
2022-11-16T21:01:20.942Z,92.09
2022-11-16T21:03:47.606Z,91.86
2022-11-16T21:06:14.726Z,91.92
2022-11-16T21:08:42.063Z,92.17
2022-11-16T21:11:21.270Z,92.07
2022-11-16T21:14:07.053Z,92.10
2022-11-16T21:16:34.729Z,92.47
2022-11-16T21:19:02.255Z,92.70
2022-11-16T21:21:29.531Z,92.20
2022-11-16T21:23:56.077Z,93.02
2022-11-16T21:26:25.980Z,92.70
2022-11-16T21:28:53.027Z,92.55
2022-11-16T21:31:25.665Z,92.88
2022-11-16T21:33:53.136Z,92.55
2022-11-16T21:36:22.346Z,93.30
2022-11-16T21:38:49.219Z,93.24
2022-11-16T21:41:17.290Z,92.91
2022-11-16T21:43:44.277Z,92.72
2022-11-16T21:46:22.427Z,93.27
2022-11-16T21:48:50.987Z,93.36
2022-11-16T21:51:19.475Z,93.22
2022-11-16T21:53:46.199Z,94.47
2022-11-16T21:56:18.049Z,94.93
2022-11-16T21:58:45.602Z,95.67
2022-11-16T22:01:13.521Z,96.45
2022-11-16T22:03:40.184Z,96.28
2022-11-16T22:06:26.720Z,96.06
2022-11-16T22:08:56.002Z,97.10
2022-11-16T22:11:22.546Z,97.04
2022-11-16T22:13:49.814Z,97.27
2022-11-16T22:16:18.194Z,97.67
2022-11-16T22:18:44.636Z,97.86
2022-11-16T22:21:11.609Z,98.27
2022-11-16T22:23:39.011Z,98.97
2022-11-16T22:26:08.984Z,99.77
2022-11-16T22:28:36.102Z,99.99
2022-11-16T22:31:10.661Z,100.00
2022-11-16T22:33:37.736Z,100.00
2022-11-16T22:36:05.328Z,100.00
2022-11-16T22:38:31.935Z,100.00
2022-11-16T22:40:58.405Z,100.00
2022-11-16T22:43:27.179Z,100.00
2022-11-16T22:46:06.508Z,100.00
2022-11-16T22:48:35.970Z,100.00
2022-11-16T22:51:26.110Z,100.00
2022-11-16T22:54:11.564Z,100.00
2022-11-16T22:56:38.444Z,100.00
2022-11-16T22:59:09.689Z,100.00
2022-11-16T23:01:37.090Z,100.00
2022-11-16T23:04:03.977Z,100.00
2022-11-16T23:06:30.776Z,100.00
2022-11-16T23:08:57.316Z,100.00
2022-11-16T23:11:43.898Z,100.00
2022-11-16T23:14:31.887Z,100.00
2022-11-16T23:16:58.833Z,100.00
2022-11-16T23:19:44.385Z,100.00
2022-11-16T23:22:38.392Z,100.00
2022-11-16T23:25:26.016Z,100.00
2022-11-16T23:28:01.307Z,100.00
2022-11-16T23:30:27.869Z,100.00
2022-11-16T23:32:54.830Z,100.00
2022-11-16T23:35:22.689Z,100.00
2022-11-16T23:38:00.681Z,100.00
2022-11-16T23:40:32.609Z,100.00
2022-11-16T23:43:18.165Z,100.00
2022-11-16T23:45:45.281Z,100.00
2022-11-16T23:48:14.305Z,100.00
2022-11-16T23:50:41.418Z,100.00
2022-11-16T23:53:09.467Z,100.00
2022-11-16T23:55:38.350Z,100.00
2022-11-16T23:58:12.337Z,100.00
